Aérodrome :
LOGIN :

S'inscrire | Disclaimer

   EN    FR    IT 

 










Légende :    VFR   VFR Marginal   IFR   IFR Intensif   IFR Très Intensif
Visi : 
Plafond : 
>= 8 km
>= 3000ft
5 à 8 km
1000 à 3000 ft
1500m à 5 km
500 à 1000 ft
800 à 1500m
200 à 500 ft
< 800m
< 200 ft
Symboles :   Orages  Brouillard  Fortes neiges  Fortes précipitations  Vent > 20 kt
SIGMETs :   Divers  Orages  Givrage  Turbulence  Onde Orograph.  Cendres Volcan.






- Altitude de l'aérodrome : 297 ft
- Code IATA : UIP


LFRQ - Quimper Pluguffan

DERNIER METAR :
  • 101100Z AUTO 02007KT 340V060 CAVOK 28/19 Q1013 TEMPO TSRA BKN012CB

METARs EXPIRÉS :
  • 101030Z AUTO 01007KT 330V070 CAVOK 27/19 Q1013 TEMPO TSRA BKN012CB
  • 101000Z AUTO 03007KT 350V060 CAVOK 26/19 Q1013 TEMPO TSRA BKN012CB
  • 100930Z AUTO 03008KT 360V060 CAVOK 25/18 Q1013 TEMPO TSRA BKN012CB
  • 100900Z AUTO 03007KT CAVOK 23/18 Q1014 TEMPO TSRA BKN012CB
  • 100830Z AUTO 03008KT 360V060 CAVOK 23/18 Q1014 TEMPO TSRA BKN012CB
  • 100800Z AUTO 02006KT 350V050 CAVOK 21/18 Q1014 TEMPO TSRA BKN012CB

TAF TAF LFRQ
Valide du 10 à 06h jusqu'au 11 à 06h UTC


100500Z 1006/1106 02006KT CAVOK
TEMPO 1006/1008 2000 BR BKN003
TEMPO 1006/1106 SHRA
PROB40
TEMPO 1008/1018 TSRA BKN012CB



MET'MAP, la Météo Aéronautique d'un coup d'oeil ! - Copyright ORBIFLY Décembre 2007 - Disclaimer

ORBIFLY MET'MAP TEAM :

Programmation & Développement : Alexandra Zaïnal
Sur une idée originale de : Baudouin d'Aumeries
Assistance à la programmation : Marc-Olivier Méhu
Soutien technique & logistique : Manuel Goepfert

Contact : metmap@orbifly.com




SOURCES & CREDITS :

   NOAA